Time;durP1;ratioP1;P1;durP2;ratioP2;P2;SDS_P1;SDS_P2;PMS_P1;PMS_P2;Temp;Humidity;BMP_temperature;BMP_pressure;BME280_temperature;BME280_humidity;BME280_pressure;Samples;Min_cycle;Max_cycle;Signal;HPM_P1;HPM_P2
2023/12/31 00:01:41;;;;;;;21.70;3.67;;;20.70;99.90;;;;;;5012545;28;20277;-69
2023/12/31 00:04:09;;;;;;;17.90;2.93;;;20.80;99.90;;;;;;5012130;28;20190;-69
2023/12/31 00:06:36;;;;;;;12.87;3.23;;;20.70;99.90;;;;;;5012180;28;20269;-69
2023/12/31 00:09:04;;;;;;;13.90;2.90;;;20.80;99.90;;;;;;5012035;28;20220;-70
2023/12/31 00:11:32;;;;;;;16.57;3.17;;;20.80;99.90;;;;;;5012552;28;20278;-69
2023/12/31 00:13:59;;;;;;;14.50;3.23;;;20.90;99.90;;;;;;5011684;28;20332;-69
2023/12/31 00:16:27;;;;;;;12.67;2.83;;;21.00;99.90;;;;;;5011256;28;20178;-68
2023/12/31 00:18:55;;;;;;;16.27;2.83;;;21.20;99.90;;;;;;5011932;28;20217;-70
2023/12/31 00:21:22;;;;;;;18.13;3.00;;;21.30;99.90;;;;;;5011509;28;20260;-70
2023/12/31 00:23:50;;;;;;;11.80;3.07;;;21.40;99.90;;;;;;5012011;28;20239;-71
2023/12/31 00:26:18;;;;;;;14.67;3.37;;;21.60;99.90;;;;;;4994354;28;20193;-69
2023/12/31 00:28:46;;;;;;;14.33;3.10;;;21.40;99.90;;;;;;5011650;28;20608;-71
2023/12/31 00:31:13;;;;;;;11.37;2.90;;;21.30;99.90;;;;;;5012368;28;20170;-72
2023/12/31 00:33:41;;;;;;;16.50;2.60;;;21.40;99.90;;;;;;5011708;28;20659;-71
2023/12/31 00:36:09;;;;;;;11.80;2.77;;;21.50;99.90;;;;;;5011409;28;20213;-73
2023/12/31 00:38:37;;;;;;;12.27;2.63;;;21.40;99.90;;;;;;5011947;28;20810;-70
2023/12/31 00:41:05;;;;;;;15.00;2.90;;;21.50;99.90;;;;;;5011756;28;20189;-72
2023/12/31 00:43:32;;;;;;;14.07;2.93;;;21.60;99.90;;;;;;5011498;28;20671;-71
2023/12/31 00:46:00;;;;;;;14.67;2.40;;;21.60;99.90;;;;;;5011622;28;20204;-70
2023/12/31 00:48:28;;;;;;;10.70;2.30;;;21.70;99.90;;;;;;5011725;28;20182;-73
2023/12/31 00:50:55;;;;;;;15.23;2.83;;;21.70;99.90;;;;;;5011344;28;20197;-73
2023/12/31 00:53:23;;;;;;;10.63;2.70;;;21.70;99.90;;;;;;5010501;28;20225;-74
2023/12/31 00:55:51;;;;;;;10.90;2.90;;;21.80;99.90;;;;;;5011143;28;20268;-73
2023/12/31 00:58:18;;;;;;;11.10;2.50;;;22.10;99.90;;;;;;5010617;28;20200;-73
2023/12/31 01:00:46;;;;;;;10.17;2.43;;;22.20;99.90;;;;;;5011064;28;20238;-73
2023/12/31 01:03:14;;;;;;;12.47;2.50;;;22.20;99.90;;;;;;5011662;28;20189;-72
2023/12/31 01:05:42;;;;;;;11.60;2.17;;;22.10;99.90;;;;;;5010983;28;20239;-72
2023/12/31 01:08:10;;;;;;;10.17;2.20;;;22.20;99.90;;;;;;5011496;28;20300;-71
2023/12/31 01:10:37;;;;;;;12.00;2.77;;;22.30;99.90;;;;;;5011584;28;20183;-72
2023/12/31 01:13:05;;;;;;;9.70;2.53;;;22.40;99.90;;;;;;5010985;28;20220;-72
2023/12/31 01:15:33;;;;;;;13.33;2.60;;;22.50;99.90;;;;;;5015574;28;20182;-73
2023/12/31 01:18:01;;;;;;;13.90;2.80;;;22.40;99.90;;;;;;5011540;28;20197;-72
2023/12/31 01:20:28;;;;;;;15.90;2.67;;;22.50;99.90;;;;;;5011274;28;20229;-72
2023/12/31 01:22:56;;;;;;;12.53;2.50;;;22.50;99.90;;;;;;5011316;28;20248;-72
2023/12/31 01:25:25;;;;;;;13.57;2.90;;;22.50;99.90;;;;;;4977027;28;20190;-72
2023/12/31 01:27:55;;;;;;;18.53;3.20;;;22.50;99.90;;;;;;4996206;28;20236;-72
2023/12/31 01:30:26;;;;;;;17.47;3.07;;;22.50;99.90;;;;;;4994039;28;20185;-72
2023/12/31 01:32:54;;;;;;;14.40;2.77;;;22.50;99.90;;;;;;5011673;28;20630;-72
2023/12/31 01:35:21;;;;;;;10.17;2.33;;;22.40;99.90;;;;;;4993663;28;20200;-72
2023/12/31 01:37:49;;;;;;;11.13;2.10;;;22.20;99.90;;;;;;5011771;28;20265;-72
2023/12/31 01:40:17;;;;;;;10.10;1.97;;;22.10;99.90;;;;;;5011638;28;20266;-72
2023/12/31 01:42:45;;;;;;;15.17;2.90;;;22.10;99.90;;;;;;5011171;28;20182;-72
2023/12/31 01:45:14;;;;;;;16.33;3.10;;;22.20;99.90;;;;;;5012650;28;20244;-72
2023/12/31 01:47:43;;;;;;;15.83;2.60;;;22.30;99.90;;;;;;5012501;28;20251;-72
2023/12/31 01:50:14;;;;;;;18.10;2.43;;;22.30;99.90;;;;;;5012501;28;20201;-73
2023/12/31 01:52:43;;;;;;;10.83;2.80;;;22.30;99.90;;;;;;5012281;28;20299;-73
2023/12/31 01:55:12;;;;;;;15.43;2.70;;;22.30;99.90;;;;;;5016863;28;20273;-72
2023/12/31 01:57:41;;;;;;;13.23;3.13;;;22.50;99.90;;;;;;5016177;28;20186;-72
2023/12/31 02:00:10;;;;;;;10.87;2.40;;;22.40;99.90;;;;;;5016585;28;20191;-72
2023/12/31 02:02:39;;;;;;;10.77;2.60;;;22.40;99.90;;;;;;5005697;28;20420;-71
2023/12/31 02:05:07;;;;;;;11.17;2.70;;;22.40;99.90;;;;;;5013256;28;20261;-73
2023/12/31 02:07:35;;;;;;;14.33;2.50;;;22.30;99.90;;;;;;5014693;28;20197;-73
2023/12/31 02:10:02;;;;;;;17.83;2.87;;;22.30;99.90;;;;;;5014958;28;20204;-72
2023/12/31 02:15:53;;;;;;;13.27;3.07;;;22.30;99.90;;;;;;5014380;28;20628;-72
2023/12/31 02:18:21;;;;;;;12.70;2.90;;;22.30;99.90;;;;;;5014380;28;20191;-72
2023/12/31 02:20:48;;;;;;;13.27;3.13;;;22.30;99.90;;;;;;5015099;28;20178;-73
2023/12/31 02:23:16;;;;;;;11.00;2.40;;;22.30;99.90;;;;;;5014599;28;20640;-73
2023/12/31 02:25:55;;;;;;;12.00;3.10;;;22.50;99.90;;;;;;5014351;28;20182;-73
2023/12/31 02:28:22;;;;;;;12.23;2.57;;;22.40;99.90;;;;;;5010136;28;20249;-71
2023/12/31 02:30:50;;;;;;;15.57;2.67;;;22.30;99.90;;;;;;4995160;28;20552;-73
2023/12/31 02:33:17;;;;;;;19.43;2.53;;;22.30;99.90;;;;;;4994493;28;20218;-72
2023/12/31 02:35:45;;;;;;;18.43;3.60;;;22.20;99.90;;;;;;4996253;28;20706;-72
2023/12/31 02:38:13;;;;;;;14.37;2.30;;;22.20;99.90;;;;;;5014721;28;20208;-73
2023/12/31 02:40:40;;;;;;;9.33;2.20;;;22.40;99.90;;;;;;5014034;28;20658;-73
2023/12/31 02:43:08;;;;;;;13.13;2.63;;;22.40;99.90;;;;;;5014334;28;20224;-73
2023/12/31 02:45:36;;;;;;;15.53;2.53;;;22.50;99.90;;;;;;5014502;28;20170;-72
2023/12/31 02:48:04;;;;;;;10.53;2.60;;;22.50;99.90;;;;;;4994366;28;20179;-72
2023/12/31 02:50:32;;;;;;;17.77;4.27;;;22.50;99.90;;;;;;4994790;28;20178;-72
2023/12/31 02:53:00;;;;;;;14.90;3.03;;;22.60;99.90;;;;;;4994469;28;20261;-72
2023/12/31 02:55:27;;;;;;;16.00;2.93;;;22.60;99.90;;;;;;4994472;28;20262;-72
2023/12/31 02:57:55;;;;;;;16.37;2.90;;;22.40;99.90;;;;;;4994882;28;20193;-72
2023/12/31 03:00:23;;;;;;;15.17;3.20;;;22.40;99.90;;;;;;4995942;28;20186;-73
2023/12/31 03:02:50;;;;;;;12.00;2.77;;;22.30;99.90;;;;;;4985398;28;20190;-71
2023/12/31 03:05:18;;;;;;;15.97;2.83;;;22.30;99.90;;;;;;5010254;28;20169;-72
2023/12/31 03:07:46;;;;;;;15.53;2.50;;;22.30;99.90;;;;;;4997517;28;20341;-71
2023/12/31 03:10:14;;;;;;;14.17;2.77;;;22.30;99.90;;;;;;4976552;28;20187;-72
2023/12/31 03:12:41;;;;;;;13.33;2.47;;;22.40;99.90;;;;;;4994168;28;20222;-73
2023/12/31 03:15:10;;;;;;;12.20;2.33;;;22.40;99.90;;;;;;4994277;28;20178;-72
2023/12/31 03:17:38;;;;;;;20.40;2.80;;;22.60;99.90;;;;;;4993813;28;20190;-74
2023/12/31 03:20:06;;;;;;;13.50;2.87;;;22.50;99.90;;;;;;4994200;28;20187;-73
2023/12/31 03:22:34;;;;;;;13.47;2.37;;;22.60;99.90;;;;;;5002503;28;20288;-74
2023/12/31 03:25:02;;;;;;;15.83;2.30;;;22.60;99.90;;;;;;5012709;28;20517;-74
2023/12/31 03:27:30;;;;;;;19.60;2.87;;;22.50;99.90;;;;;;5013036;28;20565;-73
2023/12/31 03:29:57;;;;;;;9.43;2.40;;;22.50;99.90;;;;;;5013316;28;20280;-73
2023/12/31 03:32:25;;;;;;;20.80;2.87;;;22.40;99.90;;;;;;5013247;28;20251;-74
2023/12/31 03:34:53;;;;;;;19.13;3.03;;;22.30;99.90;;;;;;5012939;28;20643;-73
2023/12/31 03:37:20;;;;;;;14.47;3.50;;;22.30;99.90;;;;;;5014119;28;20233;-73
2023/12/31 03:39:50;;;;;;;15.87;3.10;;;22.30;99.90;;;;;;5012990;28;20178;-74
2023/12/31 03:42:18;;;;;;;10.97;2.53;;;22.30;99.90;;;;;;5013121;28;20567;-74
2023/12/31 03:44:47;;;;;;;16.23;3.00;;;22.30;99.90;;;;;;5018833;28;20263;-77
2023/12/31 03:47:14;;;;;;;11.20;2.67;;;22.30;99.90;;;;;;4997935;28;20190;-76
2023/12/31 03:49:42;;;;;;;14.30;2.80;;;22.30;99.90;;;;;;5010537;28;20186;-74
2023/12/31 03:58:54;;;;;;;15.30;3.03;;;22.40;99.90;;;;;;5012382;28;20279;-73
2023/12/31 04:01:21;;;;;;;15.87;2.90;;;22.50;99.90;;;;;;5014280;28;20186;-73
2023/12/31 04:03:49;;;;;;;14.07;3.37;;;22.40;99.90;;;;;;4996168;28;20184;-72
2023/12/31 04:06:17;;;;;;;12.53;2.67;;;22.40;99.90;;;;;;5013959;28;20170;-73
2023/12/31 04:08:44;;;;;;;18.77;2.87;;;22.40;99.90;;;;;;5014068;28;20189;-73
2023/12/31 04:11:13;;;;;;;20.80;3.30;;;22.40;99.90;;;;;;5014031;28;20250;-73
2023/12/31 04:13:44;;;;;;;17.00;2.67;;;22.50;99.90;;;;;;5013678;28;20271;-73
2023/12/31 04:16:11;;;;;;;20.20;3.87;;;22.50;99.90;;;;;;5013348;28;20187;-74
2023/12/31 04:18:39;;;;;;;18.33;2.93;;;22.60;99.90;;;;;;5013791;28;20174;-74
2023/12/31 04:21:07;;;;;;;12.50;2.87;;;22.40;99.90;;;;;;5014095;28;20264;-75
2023/12/31 04:23:34;;;;;;;12.30;2.73;;;22.30;99.90;;;;;;5013309;28;20244;-74
2023/12/31 04:26:02;;;;;;;13.17;2.93;;;22.30;99.90;;;;;;5013733;28;20616;-74
2023/12/31 04:28:30;;;;;;;14.93;2.80;;;22.30;99.90;;;;;;5013847;28;20190;-73
2023/12/31 04:30:57;;;;;;;16.73;3.40;;;22.20;99.90;;;;;;5013284;28;20186;-75
2023/12/31 04:33:25;;;;;;;11.13;2.77;;;22.20;99.90;;;;;;5013662;28;20293;-73
2023/12/31 04:35:53;;;;;;;12.90;2.93;;;22.10;99.90;;;;;;5013526;28;20180;-72
2023/12/31 04:38:20;;;;;;;21.63;3.27;;;22.10;99.90;;;;;;4995833;28;20196;-74
2023/12/31 04:40:48;;;;;;;15.03;2.77;;;22.00;99.90;;;;;;5013313;28;20641;-73
2023/12/31 04:43:16;;;;;;;12.13;2.50;;;21.90;99.90;;;;;;5012930;28;20247;-73
2023/12/31 04:45:43;;;;;;;14.23;2.77;;;21.80;99.90;;;;;;4995477;28;20562;-74
2023/12/31 04:48:11;;;;;;;7.70;2.17;;;21.80;99.90;;;;;;5013028;28;20185;-73
2023/12/31 04:50:39;;;;;;;14.73;3.23;;;21.90;99.90;;;;;;5013207;28;20662;-73
2023/12/31 04:53:07;;;;;;;13.10;2.83;;;21.80;99.90;;;;;;5012912;28;20213;-74
2023/12/31 04:55:35;;;;;;;20.17;3.07;;;21.70;99.90;;;;;;5013438;28;20237;-73
2023/12/31 04:58:02;;;;;;;11.30;2.90;;;21.60;99.90;;;;;;5012614;28;20252;-73
2023/12/31 05:00:30;;;;;;;12.60;3.00;;;21.60;99.90;;;;;;5013018;28;20541;-74
2023/12/31 05:02:58;;;;;;;16.53;3.63;;;21.60;99.90;;;;;;5012363;28;20185;-74
2023/12/31 05:05:26;;;;;;;15.77;2.60;;;21.70;99.90;;;;;;5006001;28;20189;-74
2023/12/31 05:07:54;;;;;;;21.10;3.60;;;21.50;99.90;;;;;;5013212;28;20180;-73
2023/12/31 05:10:22;;;;;;;16.57;3.43;;;21.50;99.90;;;;;;5013257;28;20635;-73
2023/12/31 05:12:49;;;;;;;21.27;3.00;;;21.40;99.90;;;;;;5012812;28;20705;-77
2023/12/31 05:15:17;;;;;;;19.73;2.80;;;21.40;99.90;;;;;;5012771;28;20576;-74
2023/12/31 05:17:44;;;;;;;11.17;2.43;;;21.50;99.90;;;;;;5012407;28;20209;-75
2023/12/31 05:20:12;;;;;;;15.80;3.07;;;21.50;99.90;;;;;;5013069;28;20170;-74
2023/12/31 05:22:40;;;;;;;15.47;4.03;;;21.50;99.90;;;;;;5013017;28;20188;-73
2023/12/31 05:25:09;;;;;;;12.30;2.43;;;21.50;99.90;;;;;;5011522;28;20181;-75
2023/12/31 05:27:36;;;;;;;15.47;2.57;;;21.50;99.90;;;;;;5012796;28;20261;-75
2023/12/31 05:30:04;;;;;;;13.53;2.90;;;21.60;99.90;;;;;;4999477;28;20225;-74
2023/12/31 05:32:32;;;;;;;11.17;2.27;;;21.50;99.90;;;;;;4998303;28;20721;-75
2023/12/31 05:35:00;;;;;;;11.63;2.33;;;21.60;99.90;;;;;;5016918;28;20177;-74
2023/12/31 05:37:27;;;;;;;14.80;2.97;;;21.60;99.90;;;;;;5016586;28;20185;-74
2023/12/31 05:39:55;;;;;;;13.17;3.07;;;21.70;99.90;;;;;;5016804;28;20177;-77
2023/12/31 05:42:23;;;;;;;9.87;2.70;;;21.60;99.90;;;;;;5016130;28;20188;-74
2023/12/31 05:44:54;;;;;;;15.27;2.93;;;21.60;99.90;;;;;;5016860;28;20166;-75
2023/12/31 05:47:22;;;;;;;8.47;2.00;;;21.60;99.90;;;;;;5016056;28;20189;-74
2023/12/31 05:49:50;;;;;;;9.17;2.20;;;21.60;99.90;;;;;;5016557;28;20678;-74
2023/12/31 05:52:18;;;;;;;17.83;2.60;;;21.70;99.90;;;;;;5016364;28;20241;-74
2023/12/31 05:54:45;;;;;;;17.00;2.53;;;21.80;99.90;;;;;;4998744;28;20204;-74
2023/12/31 05:57:13;;;;;;;13.37;2.93;;;21.90;99.90;;;;;;5015888;28;20698;-73
2023/12/31 05:59:41;;;;;;;15.17;3.23;;;21.90;99.90;;;;;;5016227;28;20272;-74
2023/12/31 06:02:08;;;;;;;13.10;2.90;;;21.80;99.90;;;;;;4998639;28;20306;-74
2023/12/31 06:04:36;;;;;;;12.20;2.63;;;21.80;99.90;;;;;;4973908;28;20194;-72
2023/12/31 06:07:04;;;;;;;15.63;2.97;;;21.90;99.90;;;;;;5014258;28;20189;-73
2023/12/31 06:09:32;;;;;;;15.30;2.97;;;21.80;99.90;;;;;;5014553;28;20170;-72
2023/12/31 06:15:21;;;;;;;15.47;3.17;;;21.80;99.90;;;;;;5014061;28;20543;-73
2023/12/31 06:17:49;;;;;;;9.13;2.63;;;21.80;99.90;;;;;;5014286;28;20197;-73
2023/12/31 06:20:17;;;;;;;13.73;2.37;;;21.80;99.90;;;;;;5014149;28;20604;-74
2023/12/31 06:22:44;;;;;;;12.03;2.40;;;21.80;99.90;;;;;;5014631;28;20198;-73
2023/12/31 06:25:12;;;;;;;8.83;2.37;;;21.70;99.90;;;;;;5014928;28;20182;-75
2023/12/31 06:27:40;;;;;;;14.07;3.30;;;21.60;99.90;;;;;;5014127;28;20174;-74
2023/12/31 06:30:09;;;;;;;10.53;2.63;;;21.60;99.90;;;;;;4996693;28;20644;-73
2023/12/31 06:32:36;;;;;;;10.73;3.30;;;21.60;99.90;;;;;;5014499;28;20655;-74
2023/12/31 06:35:04;;;;;;;13.40;3.27;;;21.50;99.90;;;;;;5014071;28;20180;-75
2023/12/31 06:37:32;;;;;;;9.90;2.70;;;21.50;99.90;;;;;;4997107;28;20553;-74
2023/12/31 06:40:00;;;;;;;14.30;3.03;;;21.50;99.90;;;;;;5013513;28;20185;-75
2023/12/31 06:42:27;;;;;;;15.00;3.70;;;21.40;99.90;;;;;;5014120;28;20189;-75
2023/12/31 06:44:55;;;;;;;14.23;3.43;;;21.50;99.90;;;;;;5014223;28;20214;-74
2023/12/31 06:47:23;;;;;;;17.53;3.30;;;21.40;99.90;;;;;;5014312;28;20556;-74
2023/12/31 06:49:52;;;;;;;13.30;2.77;;;21.40;99.90;;;;;;5013570;28;20181;-72
2023/12/31 06:52:20;;;;;;;15.23;3.27;;;21.40;99.90;;;;;;5014218;28;20213;-74
2023/12/31 06:54:48;;;;;;;14.23;2.70;;;21.40;99.90;;;;;;5014110;28;20201;-74
2023/12/31 06:57:15;;;;;;;17.40;3.53;;;21.40;99.90;;;;;;5013963;28;20269;-75
2023/12/31 06:59:43;;;;;;;12.97;3.00;;;21.40;99.90;;;;;;5013873;28;20620;-74
2023/12/31 07:02:11;;;;;;;8.60;2.83;;;21.40;99.90;;;;;;5013826;28;20213;-74
2023/12/31 07:04:38;;;;;;;15.10;3.73;;;21.40;99.90;;;;;;5013544;28;20189;-74
2023/12/31 07:07:06;;;;;;;17.60;3.70;;;21.40;99.90;;;;;;5013766;28;20269;-75
2023/12/31 07:09:34;;;;;;;17.63;2.47;;;21.40;99.90;;;;;;5013645;28;20189;-74
2023/12/31 07:12:02;;;;;;;11.67;3.13;;;21.40;99.90;;;;;;5013382;28;20303;-73
2023/12/31 07:14:29;;;;;;;17.00;3.37;;;21.40;99.90;;;;;;5013729;28;20181;-75
2023/12/31 07:16:57;;;;;;;13.43;2.83;;;21.40;99.90;;;;;;5013821;28;20264;-75
2023/12/31 07:19:25;;;;;;;15.03;3.30;;;21.30;99.90;;;;;;5012997;28;20170;-75
2023/12/31 07:21:52;;;;;;;15.97;2.80;;;21.40;99.90;;;;;;5013681;28;20202;-75
2023/12/31 07:24:21;;;;;;;15.33;3.30;;;21.30;99.90;;;;;;5013267;28;20689;-75
2023/12/31 07:26:48;;;;;;;15.93;3.53;;;21.30;99.90;;;;;;5013015;28;20328;-75
2023/12/31 07:29:16;;;;;;;21.43;3.93;;;21.30;99.90;;;;;;5013308;28;20189;-76
2023/12/31 07:31:45;;;;;;;16.20;4.07;;;21.20;99.90;;;;;;4995596;28;20198;-73
2023/12/31 07:34:15;;;;;;;18.47;5.20;;;21.30;99.90;;;;;;4995066;28;20264;-73
2023/12/31 07:36:43;;;;;;;19.83;5.53;;;21.20;99.90;;;;;;5013266;28;20182;-75
2023/12/31 07:39:10;;;;;;;20.43;5.10;;;21.20;99.90;;;;;;4995963;28;20251;-74
2023/12/31 07:41:38;;;;;;;16.97;4.57;;;21.30;99.90;;;;;;5012214;28;20205;-73
2023/12/31 07:44:08;;;;;;;16.00;3.40;;;21.20;99.90;;;;;;5013137;28;20832;-74
2023/12/31 07:46:37;;;;;;;10.80;3.40;;;21.20;99.90;;;;;;5012921;28;20200;-73
2023/12/31 07:49:05;;;;;;;14.93;3.20;;;21.20;99.90;;;;;;5012827;28;20180;-74
2023/12/31 07:51:33;;;;;;;20.50;3.83;;;21.20;99.90;;;;;;5012256;28;20221;-73
2023/12/31 07:54:01;;;;;;;13.03;3.53;;;21.20;99.90;;;;;;5012726;28;20189;-73
2023/12/31 07:56:28;;;;;;;9.43;2.83;;;21.20;99.90;;;;;;5012626;28;20252;-74
2023/12/31 07:58:56;;;;;;;11.30;3.23;;;21.20;99.90;;;;;;5012789;28;20303;-73
2023/12/31 08:01:24;;;;;;;11.67;3.13;;;21.20;99.90;;;;;;5013312;28;20270;-73
2023/12/31 08:03:51;;;;;;;11.13;3.30;;;21.10;99.90;;;;;;5011544;28;20197;-72
2023/12/31 08:06:19;;;;;;;13.70;3.60;;;21.10;99.90;;;;;;5012317;28;20658;-73
2023/12/31 08:08:47;;;;;;;16.40;3.40;;;21.00;99.90;;;;;;5012932;28;20647;-73
2023/12/31 08:11:15;;;;;;;12.20;2.97;;;21.00;99.90;;;;;;5012210;28;20703;-77
2023/12/31 08:13:42;;;;;;;12.57;3.17;;;21.10;99.90;;;;;;5011235;28;20209;-74
2023/12/31 08:16:10;;;;;;;17.80;3.73;;;21.10;99.90;;;;;;4994938;28;20185;-74
2023/12/31 08:18:38;;;;;;;9.63;3.33;;;21.00;99.90;;;;;;5012314;28;20182;-73
2023/12/31 08:21:06;;;;;;;11.27;3.07;;;21.00;99.90;;;;;;4994556;28;20531;-72
2023/12/31 08:23:34;;;;;;;11.80;3.10;;;20.90;99.90;;;;;;5012538;28;20640;-73
2023/12/31 08:26:03;;;;;;;17.27;3.73;;;20.90;99.90;;;;;;5011648;28;20542;-73
2023/12/31 08:28:31;;;;;;;11.37;3.67;;;21.00;99.90;;;;;;5012328;28;20178;-74
2023/12/31 08:30:59;;;;;;;13.80;3.87;;;21.00;99.90;;;;;;5012402;28;20200;-74
2023/12/31 08:33:27;;;;;;;18.03;4.93;;;20.90;99.90;;;;;;5012139;28;20684;-74
2023/12/31 08:35:54;;;;;;;14.70;3.70;;;20.90;99.90;;;;;;5012174;28;20162;-74
2023/12/31 08:38:22;;;;;;;12.37;3.03;;;20.90;99.90;;;;;;5012458;28;20575;-74
2023/12/31 08:40:51;;;;;;;9.00;2.83;;;20.90;99.90;;;;;;5011630;28;20182;-73
2023/12/31 08:43:19;;;;;;;9.73;3.23;;;20.90;99.90;;;;;;4994612;28;20244;-75
2023/12/31 08:45:47;;;;;;;9.47;2.93;;;20.90;99.90;;;;;;4994782;28;20197;-73
2023/12/31 08:48:17;;;;;;;16.50;3.93;;;20.90;99.90;;;;;;5012080;28;20186;-74
2023/12/31 08:50:45;;;;;;;11.63;3.63;;;20.90;99.90;;;;;;5012299;28;20213;-75
2023/12/31 08:53:13;;;;;;;17.90;3.70;;;20.90;99.90;;;;;;5011911;28;20228;-73
2023/12/31 08:55:41;;;;;;;11.07;3.40;;;20.80;99.90;;;;;;5011656;28;20189;-74
2023/12/31 08:58:09;;;;;;;11.30;3.23;;;20.80;99.90;;;;;;5011449;28;20267;-75
2023/12/31 09:00:36;;;;;;;14.30;3.27;;;20.80;99.90;;;;;;5011988;28;20281;-73
2023/12/31 09:03:04;;;;;;;12.67;3.37;;;20.80;99.90;;;;;;5010945;28;20197;-75
2023/12/31 09:05:32;;;;;;;9.73;3.30;;;20.80;99.90;;;;;;5011445;28;20189;-74
2023/12/31 09:08:02;;;;;;;14.67;3.10;;;20.80;99.90;;;;;;5011586;28;20544;-73
2023/12/31 09:10:30;;;;;;;11.63;3.47;;;20.80;99.90;;;;;;5013062;28;20584;-74
2023/12/31 09:12:58;;;;;;;13.80;3.40;;;20.80;99.90;;;;;;4994740;28;20702;-75
2023/12/31 09:15:25;;;;;;;13.57;3.60;;;20.80;99.90;;;;;;5013679;28;20181;-74
2023/12/31 09:17:53;;;;;;;13.60;4.00;;;20.80;99.90;;;;;;4994956;28;20552;-74
2023/12/31 09:20:22;;;;;;;7.80;3.80;;;20.70;99.90;;;;;;4995251;28;20185;-74
2023/12/31 09:22:52;;;;;;;13.80;3.60;;;20.80;99.90;;;;;;5012786;28;20177;-75
2023/12/31 09:25:21;;;;;;;12.97;3.47;;;20.80;99.90;;;;;;5013147;28;20650;-75
2023/12/31 09:27:49;;;;;;;15.77;3.97;;;20.90;99.90;;;;;;5013151;28;20647;-75
2023/12/31 09:30:17;;;;;;;10.30;4.87;;;20.80;99.90;;;;;;5013042;28;20187;-74
2023/12/31 09:32:45;;;;;;;14.10;5.67;;;20.80;99.90;;;;;;5012641;28;20221;-74
2023/12/31 09:35:12;;;;;;;19.43;5.60;;;20.50;99.90;;;;;;5011335;28;20556;-74
2023/12/31 09:37:40;;;;;;;16.10;6.17;;;20.50;99.90;;;;;;5012351;28;20186;-75
2023/12/31 09:40:09;;;;;;;26.90;11.17;;;20.30;99.90;;;;;;5012273;28;20180;-74
2023/12/31 09:42:46;;;;;;;14.70;7.60;;;20.00;99.90;;;;;;5012460;28;20176;-74
2023/12/31 09:45:17;;;;;;;9.87;6.03;;;19.60;99.90;;;;;;5010530;28;20643;-74
2023/12/31 09:47:47;;;;;;;13.07;5.97;;;19.40;99.90;;;;;;4995248;28;20548;-78
2023/12/31 09:50:16;;;;;;;15.03;3.67;;;19.20;99.90;;;;;;5012963;28;20177;-75
2023/12/31 09:52:47;;;;;;;13.97;3.40;;;19.10;99.90;;;;;;4996092;28;20221;-74
2023/12/31 09:55:19;;;;;;;14.73;3.40;;;19.10;99.90;;;;;;5012814;28;20172;-74
2023/12/31 09:57:48;;;;;;;12.57;3.47;;;19.00;99.90;;;;;;5012842;28;20650;-75
2023/12/31 10:00:16;;;;;;;9.23;3.13;;;19.10;99.90;;;;;;5012718;28;20170;-74
2023/12/31 10:02:44;;;;;;;8.17;2.90;;;19.10;99.90;;;;;;5012632;28;20178;-75
2023/12/31 10:05:15;;;;;;;12.23;3.90;;;19.20;99.90;;;;;;5012822;28;20256;-74
2023/12/31 10:07:44;;;;;;;18.50;5.40;;;19.30;99.90;;;;;;5012817;28;20176;-75
2023/12/31 10:10:16;;;;;;;14.67;7.00;;;19.30;99.90;;;;;;5012568;28;20706;-74
2023/12/31 10:12:44;;;;;;;16.50;7.50;;;19.30;99.90;;;;;;5012694;28;20223;-74
2023/12/31 10:15:12;;;;;;;12.77;6.00;;;19.30;99.90;;;;;;5015075;28;20186;-74
2023/12/31 10:17:39;;;;;;;14.83;6.60;;;19.30;99.90;;;;;;5016444;28;20207;-74
2023/12/31 10:20:08;;;;;;;13.43;5.23;;;19.40;99.90;;;;;;5016257;28;20188;-74
2023/12/31 10:22:36;;;;;;;22.43;8.13;;;19.40;99.90;;;;;;5015910;28;20181;-74
2023/12/31 10:25:14;;;;;;;23.40;8.57;;;19.40;99.90;;;;;;5015928;28;20272;-74
2023/12/31 10:27:48;;;;;;;27.70;15.07;;;19.40;99.90;;;;;;5016525;28;20205;-74
2023/12/31 10:30:16;;;;;;;34.73;16.33;;;19.40;99.90;;;;;;5015974;28;20174;-74
2023/12/31 10:32:43;;;;;;;47.67;25.77;;;19.40;99.90;;;;;;5015907;28;20248;-74
2023/12/31 10:35:10;;;;;;;27.97;17.50;;;19.40;99.90;;;;;;5015201;28;20228;-74
2023/12/31 10:37:38;;;;;;;22.20;11.77;;;19.40;99.90;;;;;;5014544;28;20681;-74
2023/12/31 10:40:22;;;;;;;19.57;10.70;;;19.30;99.90;;;;;;5015930;28;20178;-74
2023/12/31 10:42:55;;;;;;;23.93;10.53;;;19.30;99.90;;;;;;5015830;28;20179;-75
2023/12/31 10:45:23;;;;;;;23.97;9.50;;;19.30;99.90;;;;;;5016034;28;20174;-74
2023/12/31 10:47:53;;;;;;;23.60;10.87;;;19.30;99.90;;;;;;5015658;28;20169;-74
2023/12/31 10:50:24;;;;;;;23.80;11.50;;;19.30;99.90;;;;;;5015692;28;20187;-74
2023/12/31 10:53:01;;;;;;;19.10;8.27;;;19.20;99.90;;;;;;5015661;28;20244;-74
2023/12/31 10:55:29;;;;;;;23.73;10.77;;;19.20;99.90;;;;;;5015758;28;20703;-74
2023/12/31 10:57:58;;;;;;;17.57;9.00;;;19.20;99.90;;;;;;5015511;28;20187;-73
2023/12/31 11:00:25;;;;;;;14.93;6.23;;;19.20;99.90;;;;;;5015389;28;20187;-74
2023/12/31 11:02:54;;;;;;;19.20;6.00;;;19.10;99.90;;;;;;5015353;28;20182;-74
2023/12/31 11:05:23;;;;;;;23.37;8.50;;;19.20;99.90;;;;;;5015320;28;20167;-74
2023/12/31 11:07:51;;;;;;;21.97;8.60;;;19.20;99.90;;;;;;5015538;28;20208;-74
2023/12/31 11:10:18;;;;;;;17.27;7.43;;;19.20;99.90;;;;;;5015413;28;20539;-75
2023/12/31 11:12:48;;;;;;;16.10;7.07;;;19.20;99.90;;;;;;5015250;28;20339;-74
2023/12/31 11:15:21;;;;;;;18.37;8.50;;;19.20;99.90;;;;;;5014967;28;20172;-74
2023/12/31 11:18:05;;;;;;;22.43;8.70;;;19.20;99.90;;;;;;5015794;28;20579;-74
2023/12/31 11:20:50;;;;;;;19.97;7.93;;;19.20;99.90;;;;;;5015228;28;20221;-74
2023/12/31 11:23:25;;;;;;;19.83;8.70;;;19.20;99.90;;;;;;5014989;28;20539;-75
2023/12/31 11:25:52;;;;;;;28.60;10.57;;;19.20;99.90;;;;;;5015331;28;20179;-74
2023/12/31 11:28:20;;;;;;;26.97;10.30;;;19.20;99.90;;;;;;5014937;28;20635;-74
2023/12/31 11:31:02;;;;;;;27.90;11.87;;;19.20;99.90;;;;;;5014882;28;20610;-74
2023/12/31 11:33:34;;;;;;;24.30;12.73;;;19.30;99.90;;;;;;5014785;28;20220;-74
2023/12/31 11:36:07;;;;;;;25.00;14.60;;;19.30;99.90;;;;;;5014862;28;20212;-75
2023/12/31 11:38:59;;;;;;;16.83;8.17;;;19.20;99.90;;;;;;5015170;28;20180;-75
2023/12/31 11:41:39;;;;;;;14.83;7.47;;;19.20;99.90;;;;;;5014689;28;20647;-74
2023/12/31 11:47:32;;;;;;;14.47;6.60;;;19.20;99.90;;;;;;5014071;28;20272;-75
2023/12/31 11:49:59;;;;;;;13.23;5.03;;;19.10;99.90;;;;;;5014359;28;20186;-74
2023/12/31 11:52:41;;;;;;;16.67;4.83;;;19.20;99.90;;;;;;5014436;28;20213;-75
2023/12/31 11:55:15;;;;;;;19.03;5.57;;;19.10;99.90;;;;;;5014382;28;20177;-74
2023/12/31 11:57:46;;;;;;;16.47;5.70;;;19.10;99.90;;;;;;5014462;28;20293;-74
2023/12/31 12:00:14;;;;;;;11.17;4.30;;;19.10;99.90;;;;;;5013974;28;20185;-74
2023/12/31 12:02:41;;;;;;;14.33;5.27;;;19.10;99.90;;;;;;5013928;28;20269;-76
2023/12/31 12:05:17;;;;;;;18.03;5.07;;;19.10;99.90;;;;;;5013542;28;20659;-74
2023/12/31 12:07:44;;;;;;;21.10;5.20;;;19.10;99.90;;;;;;5014084;28;20207;-76
2023/12/31 12:10:12;;;;;;;16.60;4.67;;;19.00;99.90;;;;;;5014149;28;20297;-75
2023/12/31 12:12:39;;;;;;;12.70;5.43;;;19.00;99.90;;;;;;5013982;28;20210;-74
2023/12/31 12:15:07;;;;;;;19.10;6.67;;;19.10;99.90;;;;;;5014000;28;20237;-75
2023/12/31 12:17:34;;;;;;;17.47;6.57;;;19.10;99.90;;;;;;5013997;28;20274;-77
2023/12/31 12:20:04;;;;;;;20.27;8.20;;;19.10;99.90;;;;;;5000972;28;20189;-75
2023/12/31 12:22:32;;;;;;;19.93;9.23;;;19.10;99.90;;;;;;5013972;28;20184;-75
2023/12/31 12:24:59;;;;;;;20.03;8.80;;;19.10;99.90;;;;;;5014167;28;20221;-75
2023/12/31 12:27:27;;;;;;;19.97;9.23;;;19.00;99.90;;;;;;4996066;28;20182;-74
2023/12/31 12:29:55;;;;;;;24.07;8.00;;;19.00;99.90;;;;;;5013805;28;20198;-77
2023/12/31 12:32:22;;;;;;;19.43;8.50;;;19.00;99.90;;;;;;5013654;28;20233;-74
2023/12/31 12:34:50;;;;;;;24.53;10.47;;;19.00;99.90;;;;;;5013752;28;20609;-76
2023/12/31 12:37:18;;;;;;;19.83;8.23;;;19.00;99.90;;;;;;4995795;28;20185;-75
2023/12/31 12:39:45;;;;;;;15.50;7.77;;;19.00;99.90;;;;;;5013947;28;20583;-75
2023/12/31 12:42:12;;;;;;;17.60;7.20;;;19.00;99.90;;;;;;4995850;28;20484;-76
2023/12/31 12:44:40;;;;;;;15.33;7.27;;;19.00;99.90;;;;;;5013465;28;20182;-77
2023/12/31 12:47:07;;;;;;;16.33;7.93;;;19.00;99.90;;;;;;5013658;28;20269;-75
2023/12/31 12:49:34;;;;;;;23.03;8.47;;;19.10;99.90;;;;;;5013629;28;20185;-75
2023/12/31 12:52:02;;;;;;;18.27;7.53;;;19.10;99.90;;;;;;5013414;28;20196;-75
2023/12/31 12:54:29;;;;;;;13.77;7.43;;;19.10;99.90;;;;;;5012922;28;20271;-75
2023/12/31 12:56:57;;;;;;;16.07;8.03;;;19.10;99.90;;;;;;5012885;28;20189;-74
2023/12/31 12:59:24;;;;;;;17.77;7.10;;;19.10;99.90;;;;;;5010175;28;20232;-74
2023/12/31 13:01:52;;;;;;;19.00;6.63;;;19.10;99.90;;;;;;5013001;28;20189;-73